createdAt,value
2023-03-22T00:02:06.732Z,9.20
2023-03-22T00:04:33.646Z,9.20
2023-03-22T00:07:00.610Z,9.10
2023-03-22T00:09:27.214Z,9.10
2023-03-22T00:11:54.252Z,9.00
2023-03-22T00:14:21.116Z,9.00
2023-03-22T00:16:49.245Z,8.90
2023-03-22T00:19:17.320Z,8.90
2023-03-22T00:21:44.630Z,8.80
2023-03-22T00:24:11.312Z,8.80
2023-03-22T00:26:38.018Z,8.70
2023-03-22T00:29:05.041Z,8.60
2023-03-22T00:31:31.980Z,8.50
2023-03-22T00:33:58.655Z,8.40
2023-03-22T00:36:25.881Z,8.40
2023-03-22T00:38:54.886Z,8.30
2023-03-22T00:41:22.970Z,8.30
2023-03-22T00:43:51.576Z,8.20
2023-03-22T00:46:20.399Z,8.20
2023-03-22T00:48:47.542Z,8.10
2023-03-22T00:51:15.138Z,8.00
2023-03-22T00:53:43.491Z,8.00
2023-03-22T00:56:16.143Z,7.90
2023-03-22T00:58:43.525Z,7.90
2023-03-22T01:01:14.212Z,7.90
2023-03-22T01:03:43.497Z,7.90
2023-03-22T01:06:11.176Z,7.90
2023-03-22T01:08:39.053Z,7.90
2023-03-22T01:11:07.247Z,7.90
2023-03-22T01:13:34.192Z,8.00
2023-03-22T01:16:01.176Z,8.00
2023-03-22T01:18:27.842Z,8.00
2023-03-22T01:20:54.728Z,8.00
2023-03-22T01:23:21.366Z,8.10
2023-03-22T01:25:48.025Z,8.10
2023-03-22T01:28:14.726Z,8.20
2023-03-22T01:30:42.548Z,8.30
2023-03-22T01:33:10.844Z,8.30
2023-03-22T01:35:37.539Z,8.30
2023-03-22T01:38:04.605Z,8.30
2023-03-22T01:40:31.283Z,8.40
2023-03-22T01:42:58.139Z,8.40
2023-03-22T01:45:24.785Z,8.40
2023-03-22T01:47:59.488Z,8.40
2023-03-22T01:50:26.873Z,8.50
2023-03-22T01:52:57.911Z,8.50
2023-03-22T01:55:26.097Z,8.50
2023-03-22T01:57:53.335Z,8.60
2023-03-22T02:00:20.578Z,8.50
2023-03-22T02:02:48.882Z,8.50
2023-03-22T02:05:16.027Z,8.60
2023-03-22T02:07:43.573Z,8.60
2023-03-22T02:10:15.885Z,8.60
2023-03-22T02:13:02.214Z,8.60
2023-03-22T02:15:49.119Z,8.60
2023-03-22T02:18:19.092Z,8.70
2023-03-22T02:21:04.554Z,8.70
2023-03-22T02:23:40.733Z,8.70
2023-03-22T02:26:25.134Z,8.80
2023-03-22T02:28:54.842Z,8.80
2023-03-22T02:31:21.570Z,8.80
2023-03-22T02:33:54.000Z,8.80
2023-03-22T02:36:23.562Z,8.80
2023-03-22T02:38:59.414Z,8.80
2023-03-22T02:41:42.960Z,8.80
2023-03-22T02:44:18.890Z,8.80
2023-03-22T02:46:50.108Z,8.80
2023-03-22T02:49:35.453Z,8.80
2023-03-22T02:52:02.326Z,8.70
2023-03-22T02:54:35.314Z,8.70
2023-03-22T02:57:08.743Z,8.70
2023-03-22T02:59:38.378Z,8.70
2023-03-22T03:02:06.086Z,8.70
2023-03-22T03:04:35.676Z,8.70
2023-03-22T03:07:05.679Z,8.70
2023-03-22T03:09:33.265Z,8.60
2023-03-22T03:11:59.845Z,8.60
2023-03-22T03:14:28.356Z,8.60
2023-03-22T03:17:10.472Z,8.50
2023-03-22T03:19:57.603Z,8.50
2023-03-22T03:22:51.899Z,8.50
2023-03-22T03:25:30.975Z,8.50
2023-03-22T03:28:02.512Z,8.60
2023-03-22T03:30:56.162Z,8.60
2023-03-22T03:33:26.278Z,8.60
2023-03-22T03:35:59.929Z,8.60
2023-03-22T03:38:29.205Z,8.60
2023-03-22T03:40:59.015Z,8.70
2023-03-22T03:43:25.675Z,8.60
2023-03-22T03:45:52.677Z,8.60
2023-03-22T03:48:21.490Z,8.60
2023-03-22T03:50:51.160Z,8.60
2023-03-22T03:53:18.069Z,8.60
2023-03-22T03:55:44.715Z,8.50
2023-03-22T03:58:11.639Z,8.50
2023-03-22T04:00:40.932Z,8.40
2023-03-22T04:03:07.807Z,8.40
2023-03-22T04:05:34.453Z,8.30
2023-03-22T04:08:01.085Z,8.30
2023-03-22T04:10:27.913Z,8.30
2023-03-22T04:12:54.552Z,8.20
2023-03-22T04:15:21.533Z,8.10
2023-03-22T04:17:48.302Z,8.10
2023-03-22T04:20:15.256Z,8.00
2023-03-22T04:22:42.048Z,7.90
2023-03-22T04:25:12.919Z,7.90
2023-03-22T04:27:41.059Z,7.80
2023-03-22T04:30:12.347Z,7.80
2023-03-22T04:32:40.397Z,7.70
2023-03-22T04:35:09.206Z,7.70
2023-03-22T04:37:36.446Z,7.70
2023-03-22T04:40:07.539Z,7.60
2023-03-22T04:42:36.019Z,7.50
2023-03-22T04:45:04.219Z,7.50
2023-03-22T04:47:31.433Z,7.40
2023-03-22T04:49:58.109Z,7.40
2023-03-22T04:52:26.619Z,7.30
2023-03-22T04:54:53.262Z,7.20
2023-03-22T04:57:20.118Z,7.20
2023-03-22T04:59:46.804Z,7.10
2023-03-22T05:02:13.385Z,7.10
2023-03-22T05:04:40.197Z,7.00
2023-03-22T05:07:09.337Z,7.00
2023-03-22T05:09:36.314Z,7.00
2023-03-22T05:12:02.972Z,6.90
2023-03-22T05:14:29.567Z,6.90
2023-03-22T05:16:56.181Z,6.90
2023-03-22T05:19:24.392Z,6.80
2023-03-22T05:21:58.083Z,6.80
2023-03-22T05:24:25.266Z,6.80
2023-03-22T05:26:54.021Z,6.70
2023-03-22T05:29:21.596Z,6.70
2023-03-22T05:31:48.471Z,6.70
2023-03-22T05:34:15.599Z,6.70
2023-03-22T05:36:42.182Z,6.70
2023-03-22T05:39:09.091Z,6.70
2023-03-22T05:41:36.779Z,6.70
2023-03-22T05:44:04.616Z,6.70
2023-03-22T05:46:31.288Z,6.70
2023-03-22T05:48:58.214Z,6.70
2023-03-22T05:51:25.515Z,6.80
2023-03-22T05:53:53.547Z,6.80
2023-03-22T05:56:24.298Z,6.80
2023-03-22T05:58:51.853Z,6.90
2023-03-22T06:01:20.527Z,6.90
2023-03-22T06:03:48.542Z,6.90
2023-03-22T06:06:15.989Z,7.10
2023-03-22T06:08:42.705Z,7.10
2023-03-22T06:11:09.718Z,7.20
2023-03-22T06:13:37.608Z,7.30
2023-03-22T06:16:05.079Z,7.30
2023-03-22T06:18:31.978Z,7.40
2023-03-22T06:20:58.937Z,7.60
2023-03-22T06:23:27.416Z,7.70
2023-03-22T06:25:54.212Z,7.80
2023-03-22T06:28:21.213Z,7.90
2023-03-22T06:30:48.016Z,8.00
2023-03-22T06:33:14.904Z,8.10
2023-03-22T06:35:41.574Z,8.20
2023-03-22T06:38:09.650Z,8.30
2023-03-22T06:40:38.578Z,8.40
2023-03-22T06:43:07.190Z,8.50
2023-03-22T06:45:34.151Z,8.60
2023-03-22T06:48:01.163Z,8.80
2023-03-22T06:50:29.079Z,8.90
2023-03-22T06:52:56.322Z,9.10
2023-03-22T06:55:24.512Z,9.20
2023-03-22T06:57:51.472Z,9.30
2023-03-22T07:00:18.408Z,9.50
2023-03-22T07:02:46.470Z,9.60
2023-03-22T07:05:13.094Z,9.80
2023-03-22T07:07:39.806Z,9.90
2023-03-22T07:10:07.868Z,10.10
2023-03-22T07:12:35.068Z,10.30
2023-03-22T07:15:01.942Z,10.50
2023-03-22T07:17:28.623Z,10.70
2023-03-22T07:19:55.337Z,10.80
2023-03-22T07:22:22.353Z,11.00
2023-03-22T07:24:57.033Z,11.20
2023-03-22T07:27:25.294Z,11.30
2023-03-22T07:29:51.951Z,11.40
2023-03-22T07:32:18.691Z,11.60
2023-03-22T07:34:45.998Z,11.80
2023-03-22T07:37:12.666Z,12.00
2023-03-22T07:39:39.767Z,12.20
2023-03-22T07:42:06.821Z,12.50
2023-03-22T07:44:33.758Z,12.70
2023-03-22T07:47:00.770Z,12.80
2023-03-22T07:49:27.902Z,13.00
2023-03-22T07:51:54.716Z,13.10
2023-03-22T07:54:33.013Z,13.30
2023-03-22T07:57:01.758Z,13.50
2023-03-22T07:59:28.663Z,13.70
2023-03-22T08:01:55.596Z,13.90
2023-03-22T08:04:22.644Z,14.00
2023-03-22T08:06:50.125Z,14.20
2023-03-22T08:09:17.078Z,14.30
2023-03-22T08:11:44.921Z,14.40
2023-03-22T08:14:11.777Z,14.50
2023-03-22T08:16:41.593Z,14.50
2023-03-22T08:19:08.800Z,14.70
2023-03-22T08:21:37.376Z,14.80
2023-03-22T08:24:04.770Z,14.90
2023-03-22T08:26:31.420Z,15.10
2023-03-22T08:28:58.454Z,15.20
2023-03-22T08:31:26.511Z,15.30
2023-03-22T08:33:53.528Z,15.40
2023-03-22T08:36:22.886Z,15.50
2023-03-22T08:38:50.026Z,15.60
2023-03-22T08:41:16.656Z,15.70
2023-03-22T08:43:43.481Z,15.80
2023-03-22T08:46:10.214Z,15.80
2023-03-22T08:48:40.123Z,16.00
2023-03-22T08:51:07.128Z,16.10
2023-03-22T08:53:33.961Z,16.20
2023-03-22T08:56:02.188Z,16.30
2023-03-22T08:58:29.351Z,16.40
2023-03-22T09:00:56.074Z,16.50
2023-03-22T09:03:24.854Z,16.50
2023-03-22T09:05:51.656Z,16.60
2023-03-22T09:08:20.078Z,16.60
2023-03-22T09:10:51.227Z,16.60
2023-03-22T09:13:18.506Z,16.70
2023-03-22T09:15:45.598Z,16.70
2023-03-22T09:18:12.350Z,16.80
2023-03-22T09:20:39.572Z,16.90
2023-03-22T09:23:06.740Z,17.00
2023-03-22T09:25:33.491Z,17.10
2023-03-22T09:28:00.333Z,17.20
2023-03-22T09:30:27.427Z,17.30
2023-03-22T09:32:54.457Z,17.30
2023-03-22T09:35:21.783Z,17.40
2023-03-22T09:37:49.636Z,17.60
2023-03-22T09:40:17.644Z,17.60
2023-03-22T09:42:46.576Z,17.70
2023-03-22T09:45:22.894Z,17.70
2023-03-22T09:47:52.729Z,17.80
2023-03-22T09:50:21.107Z,17.90
2023-03-22T09:52:48.517Z,17.90
2023-03-22T09:55:20.334Z,18.00
2023-03-22T09:57:54.523Z,18.20
2023-03-22T10:00:47.768Z,18.30
2023-03-22T10:03:21.059Z,18.30
2023-03-22T10:05:57.353Z,18.40
2023-03-22T10:08:24.130Z,18.50
2023-03-22T10:10:52.477Z,18.60
2023-03-22T10:13:19.946Z,18.60
2023-03-22T10:15:46.643Z,18.60
2023-03-22T10:18:17.574Z,18.70
2023-03-22T10:20:48.513Z,18.80
2023-03-22T10:23:20.179Z,18.80
2023-03-22T10:25:47.104Z,18.70
2023-03-22T10:28:19.769Z,18.90
2023-03-22T10:30:51.884Z,18.90
2023-03-22T10:33:24.745Z,19.00
2023-03-22T10:35:52.590Z,19.10
2023-03-22T10:38:30.005Z,19.10
2023-03-22T10:40:59.621Z,19.20
2023-03-22T10:43:35.108Z,19.20
2023-03-22T10:46:04.117Z,19.30
2023-03-22T10:48:36.199Z,19.40
2023-03-22T10:51:04.651Z,19.50
2023-03-22T10:53:37.360Z,19.60
2023-03-22T10:56:04.557Z,19.60
2023-03-22T10:58:32.127Z,19.80
2023-03-22T11:01:02.910Z,19.80
2023-03-22T11:03:36.553Z,19.80
2023-03-22T11:06:06.636Z,19.80
2023-03-22T11:08:52.861Z,19.80
2023-03-22T11:11:24.789Z,19.80
2023-03-22T11:14:20.914Z,19.70
2023-03-22T11:16:59.050Z,19.70
2023-03-22T11:19:33.328Z,19.80
2023-03-22T11:22:00.721Z,19.90
2023-03-22T11:24:30.678Z,19.90
2023-03-22T11:27:19.633Z,19.90
2023-03-22T11:29:47.834Z,20.00
2023-03-22T11:32:26.180Z,20.10
2023-03-22T11:35:04.491Z,20.30
2023-03-22T11:37:31.145Z,20.30
2023-03-22T11:40:00.174Z,20.40
2023-03-22T11:42:27.031Z,20.40
2023-03-22T11:44:55.048Z,20.50
2023-03-22T11:47:22.075Z,20.60
2023-03-22T11:49:50.231Z,20.50
2023-03-22T11:52:23.296Z,20.50
2023-03-22T11:54:52.758Z,20.60
2023-03-22T11:57:22.119Z,20.50
2023-03-22T11:59:48.736Z,20.50
2023-03-22T12:02:29.997Z,20.50
2023-03-22T12:05:03.361Z,20.60
2023-03-22T12:07:31.591Z,20.80
2023-03-22T12:10:00.620Z,20.90
2023-03-22T12:12:29.907Z,20.80
2023-03-22T12:15:09.938Z,20.80
2023-03-22T12:17:40.525Z,20.90
2023-03-22T12:20:12.974Z,21.10
2023-03-22T12:22:43.197Z,21.30
2023-03-22T12:25:12.457Z,21.40
2023-03-22T12:27:41.655Z,21.40
2023-03-22T12:30:28.850Z,21.30
2023-03-22T12:33:01.874Z,21.30
2023-03-22T12:35:31.135Z,21.30
2023-03-22T12:38:06.012Z,21.30
2023-03-22T12:40:34.404Z,21.30
2023-03-22T12:43:17.307Z,21.40
2023-03-22T12:45:47.772Z,21.50
2023-03-22T12:48:18.937Z,21.60
2023-03-22T12:50:54.169Z,21.50
2023-03-22T12:53:21.293Z,21.40
2023-03-22T12:55:48.542Z,21.20
2023-03-22T12:58:19.686Z,21.00
2023-03-22T13:00:52.805Z,20.80
2023-03-22T13:03:22.520Z,20.90
2023-03-22T13:05:50.276Z,20.90
2023-03-22T13:08:21.561Z,20.90
2023-03-22T13:11:01.294Z,21.00
2023-03-22T13:13:28.222Z,20.90
2023-03-22T13:15:58.201Z,20.90
2023-03-22T13:18:37.941Z,20.80
2023-03-22T13:21:15.605Z,20.80
2023-03-22T13:23:56.525Z,20.80
2023-03-22T13:26:28.311Z,20.70
2023-03-22T13:28:57.812Z,20.80
2023-03-22T13:31:36.090Z,20.80
2023-03-22T13:34:04.365Z,20.80
2023-03-22T13:36:32.041Z,20.80
2023-03-22T13:39:00.188Z,20.70
2023-03-22T13:41:28.164Z,20.70
2023-03-22T13:43:55.975Z,20.70
2023-03-22T13:46:22.767Z,20.70
2023-03-22T13:48:52.841Z,20.80
2023-03-22T13:51:22.855Z,20.80
2023-03-22T13:54:03.617Z,20.90
2023-03-22T13:56:43.316Z,20.80
2023-03-22T13:59:11.851Z,20.80
2023-03-22T14:01:47.490Z,20.90
2023-03-22T14:04:18.744Z,20.90
2023-03-22T14:06:57.616Z,21.00
2023-03-22T14:09:28.252Z,21.00
2023-03-22T14:12:04.513Z,21.10
2023-03-22T14:14:33.006Z,21.00
2023-03-22T14:16:59.587Z,21.00
2023-03-22T14:19:29.154Z,21.00
